Goshen, Canada
Current Conditions -  °F | °C
As of 1:00 PM on Thursday 18 Dec 2014 (Local Time) from CYPD Reporting Station
Overcast Overcast  
Wind Chill: 35°   Ceiling: 1600
Heat Index: 43°   Visibility: 9mi
Dew Point: 37°   Wind: 15mph
Humidity: 81%   Direction: 200°SSW
Pressure: 29.44"   Gusts: 26mph
Location:  45.38°N, 61.98°W
Report Text: CYPD 181700Z AUTO 20013G23KT 9SM OVC016 06/03 A2944 RMK SLP973
Loading
Personal Weather Stations






























Interactive Weather Map New forecast layout! Learn more

10-Day Weather Forecast

Advertisements
Track Severe Weather on mobile